Faywood, New Mexico
Current Conditions -  °F | °C
As of 9:15 PM on Tuesday 25 Nov 2014 (Local Time) from KSVC Reporting Station
Clear Clear  
Wind Chill: 30°   Ceiling: Unl
Heat Index: 36°   Visibility: 10mi
Dew Point:   Wind: 7mph
Humidity: 22%   Direction: 350°N
Pressure: 30.34"   Gusts: NA
Location:  32.5°N, 107.99°W
Report Text: KSVC 260415Z AUTO 35006KT 10SM CLR 02/M18 A3034 RMK AO2
Loading
Personal Weather Stations






























Interactive Weather Map New forecast layout! Learn more

10-Day Weather Forecast

Advertisements
Track Severe Weather on mobile